Darstellungsparameter: Aktuell verwendete Einstellungen:
Skalierung der Graphiken ... ?
xyx+y,   Skalierungsfaktor:      Skalierung: Modus: x, Faktor: 1
Darstellungszeitraum ... ?
Vom - - bis: - -   Zeitraum: 11.04.2021 - 11.04.2021
Min/Max/Avg-Anzeige ... ?
Zeige MMA aktuell
Zeige MMA Monat
Zeige MMA alles
Zeige --A aktuell
Zeige --A Monat
Zeige --A alles
Keine MMA-Anzeige
MMA:
Minimum Maximum Average (ber die Originaldaten)
MMA-Basis: 23.02.2003 - 12.04.2021
Quicknavigation für Darstellung... ?
Tage:      1T, 2T, 3T, 5T -1T -2T -3T -5T +1T +2T +3T +5T
Wochen: 1W, 2W, 3W -1W -2W -3W +1W +2W +3W
Monate: 1M, 3M, 6M -1M -3M -6M +1M +3M +6M
Jahre:    1J, 3J, 5J, 10J -1J -3J -5J -10J +1J +3J +5J +10J
Nutze für die Darstellung ... ?
Originaldaten oder Mittelwerte auf ...
Stundenbasis Tagesbasis Wochenbasis
Monatsbasis Jahresbasis      Datenbasis: Original-Daten
Darstellen als:
Statistik (Auto) Statistik J:M      Darstellung:
Zur Graphik,    zurück zur Übersicht aller Sensoren.
 
Tabellarische Datenbersicht: ?
 
Sensor: Nr:Datum:Temp:Abs-Feuchte:Windchill:Wind:
Aussen-T/F 1 11-04-2021 02:00:00 8.9 C 8.41 g/m*3 8.9 C 0 km/h
2 11-04-2021 02:05:00 8.9 C 8.41 g/m*3 8.9 C 0 km/h
3 11-04-2021 02:10:00 8.9 C 8.41 g/m*3 8.9 C 1.6 km/h
4 11-04-2021 02:15:00 8.9 C 8.41 g/m*3 8.9 C 0 km/h
5 11-04-2021 02:20:00 8.9 C 8.41 g/m*3 8.9 C 1.6 km/h
6 11-04-2021 02:25:00 9 C 8.46 g/m*3 9 C 0 km/h
7 11-04-2021 02:30:00 9 C 8.55 g/m*3 9 C 0 km/h
8 11-04-2021 02:35:00 9.1 C 8.61 g/m*3 9.1 C 1.6 km/h
9 11-04-2021 02:40:00 9.1 C 8.61 g/m*3 8.33 C 6.4 km/h
10 11-04-2021 02:45:00 9.2 C 8.66 g/m*3 8.45 C 6.4 km/h
11 11-04-2021 02:50:00 9.3 C 8.72 g/m*3 9.3 C 3.2 km/h
12 11-04-2021 02:55:00 9.2 C 8.66 g/m*3 9.2 C 1.6 km/h
13 11-04-2021 03:00:00 9.3 C 8.72 g/m*3 9.3 C 3.2 km/h
14 11-04-2021 03:05:00 9.3 C 8.72 g/m*3 9.3 C 1.6 km/h
15 11-04-2021 03:10:00 9.3 C 8.72 g/m*3 9.3 C 0 km/h
16 11-04-2021 03:15:00 9.2 C 8.66 g/m*3 9.2 C 0 km/h
17 11-04-2021 03:20:00 9.2 C 8.66 g/m*3 9.2 C 0 km/h
18 11-04-2021 03:25:00 9.1 C 8.61 g/m*3 9.1 C 0 km/h
19 11-04-2021 03:30:00 9.1 C 8.61 g/m*3 9.1 C 0 km/h
20 11-04-2021 03:35:00 9.1 C 8.61 g/m*3 9.1 C 0 km/h
21 11-04-2021 03:40:00 9.1 C 8.61 g/m*3 9.1 C 0 km/h
22 11-04-2021 03:45:00 9.1 C 8.61 g/m*3 9.1 C 0 km/h
23 11-04-2021 03:50:00 9 C 8.55 g/m*3 9 C 0 km/h
24 11-04-2021 03:55:00 9 C 8.55 g/m*3 9 C 0 km/h
25 11-04-2021 04:00:00 9 C 8.55 g/m*3 9 C 0 km/h
Sensor: Nr:Datum:Temp:Abs-Feuchte:Windchill:Wind:
Aussen-T/F 26 11-04-2021 04:05:00 9 C 8.55 g/m*3 9 C 0 km/h
27 11-04-2021 04:10:00 8.9 C 8.5 g/m*3 8.9 C 0 km/h
28 11-04-2021 04:15:00 8.8 C 8.36 g/m*3 8.8 C 0 km/h
29 11-04-2021 04:20:00 8.8 C 8.44 g/m*3 8.8 C 0 km/h
30 11-04-2021 04:25:00 8.8 C 8.44 g/m*3 8.8 C 0 km/h
31 11-04-2021 04:30:00 8.8 C 8.44 g/m*3 8.8 C 0 km/h
32 11-04-2021 04:35:00 8.8 C 8.44 g/m*3 8.8 C 0 km/h
33 11-04-2021 04:40:00 8.8 C 8.44 g/m*3 8.8 C 0 km/h
34 11-04-2021 04:45:00 8.8 C 8.44 g/m*3 8.8 C 0 km/h
35 11-04-2021 04:50:00 8.8 C 8.44 g/m*3 8.8 C 0 km/h
36 11-04-2021 04:55:00 8.8 C 8.44 g/m*3 8.8 C 0 km/h
37 11-04-2021 05:00:00 8.7 C 8.39 g/m*3 8.7 C 0 km/h
38 11-04-2021 05:05:00 8.7 C 8.39 g/m*3 8.7 C 0 km/h
39 11-04-2021 05:10:00 8.7 C 8.39 g/m*3 8.7 C 0 km/h
40 11-04-2021 05:15:00 8.7 C 8.39 g/m*3 8.7 C 0 km/h
41 11-04-2021 05:20:00 8.7 C 8.39 g/m*3 8.7 C 4.8 km/h
42 11-04-2021 05:25:00 8.8 C 8.44 g/m*3 8.8 C 3.2 km/h
43 11-04-2021 05:30:00 8.8 C 8.44 g/m*3 8.8 C 4.8 km/h
44 11-04-2021 05:35:00 8.8 C 8.44 g/m*3 8.8 C 3.2 km/h
45 11-04-2021 05:40:00 8.9 C 8.5 g/m*3 8.9 C 0 km/h
46 11-04-2021 05:45:00 8.9 C 8.5 g/m*3 8.9 C 0 km/h
47 11-04-2021 05:50:00 8.9 C 8.5 g/m*3 8.9 C 3.2 km/h
48 11-04-2021 05:55:00 9 C 8.55 g/m*3 9 C 3.2 km/h
49 11-04-2021 06:00:00 9 C 8.55 g/m*3 9 C 1.6 km/h
50 11-04-2021 06:05:00 9 C 8.55 g/m*3 9 C 3.2 km/h
Sensor: Nr:Datum:Temp:Abs-Feuchte:Windchill:Wind:
Aussen-T/F 51 11-04-2021 06:10:00 9 C 8.55 g/m*3 9 C 1.6 km/h
52 11-04-2021 06:15:00 9.1 C 8.61 g/m*3 9.1 C 1.6 km/h
53 11-04-2021 06:20:00 9.1 C 8.61 g/m*3 9.1 C 3.2 km/h
54 11-04-2021 06:25:00 9.1 C 8.61 g/m*3 9.1 C 3.2 km/h
55 11-04-2021 06:30:00 9.1 C 8.61 g/m*3 9.1 C 1.6 km/h
56 11-04-2021 06:35:00 9.1 C 8.61 g/m*3 9.1 C 1.6 km/h
57 11-04-2021 06:40:00 9.1 C 8.61 g/m*3 9.1 C 1.6 km/h
58 11-04-2021 06:45:00 9.1 C 8.61 g/m*3 9.1 C 0 km/h
59 11-04-2021 06:50:00 9.1 C 8.61 g/m*3 9.1 C 0 km/h
60 11-04-2021 06:55:00 9.1 C 8.61 g/m*3 9.1 C 0 km/h
61 11-04-2021 07:00:00 9.1 C 8.61 g/m*3 9.1 C 0 km/h
62 11-04-2021 07:05:00 9.1 C 8.61 g/m*3 9.1 C 0 km/h
63 11-04-2021 07:10:00 9.2 C 8.66 g/m*3 9.2 C 0 km/h
64 11-04-2021 07:15:00 9.2 C 8.66 g/m*3 9.2 C 0 km/h
65 11-04-2021 07:20:00 9.2 C 8.66 g/m*3 9.2 C 0 km/h
66 11-04-2021 07:25:00 9.2 C 8.66 g/m*3 9.2 C 0 km/h
67 11-04-2021 07:30:00 9.2 C 8.66 g/m*3 9.2 C 0 km/h
68 11-04-2021 07:35:00 9.3 C 8.72 g/m*3 9.3 C 0 km/h
69 11-04-2021 07:40:00 9.3 C 8.72 g/m*3 9.3 C 0 km/h
70 11-04-2021 07:45:00 9.3 C 8.72 g/m*3 9.3 C 0 km/h
71 11-04-2021 07:50:00 9.3 C 8.72 g/m*3 9.3 C 0 km/h
72 11-04-2021 07:55:00 9.3 C 8.72 g/m*3 9.3 C 0 km/h
73 11-04-2021 08:00:00 9.4 C 8.77 g/m*3 9.4 C 0 km/h
74 11-04-2021 08:05:00 9.4 C 8.77 g/m*3 9.4 C 0 km/h
75 11-04-2021 08:10:00 9.4 C 8.77 g/m*3 9.4 C 0 km/h
Sensor: Nr:Datum:Temp:Abs-Feuchte:Windchill:Wind:
Aussen-T/F 76 11-04-2021 08:15:00 9.4 C 8.77 g/m*3 9.4 C 0 km/h
77 11-04-2021 08:20:00 9.6 C 8.89 g/m*3 9.6 C 0 km/h
78 11-04-2021 08:25:00 9.6 C 8.89 g/m*3 9.6 C 0 km/h
79 11-04-2021 08:30:00 9.7 C 8.94 g/m*3 9.7 C 0 km/h
80 11-04-2021 08:35:00 9.7 C 8.94 g/m*3 9.7 C 0 km/h
81 11-04-2021 08:40:00 9.8 C 9 g/m*3 9.8 C 0 km/h
82 11-04-2021 08:45:00 10 C 9.21 g/m*3 10 C 0 km/h
83 11-04-2021 08:50:00 10.2 C 9.23 g/m*3 10.2 C 0 km/h
84 11-04-2021 08:55:00 10.4 C 9.44 g/m*3 10.4 C 0 km/h
85 11-04-2021 09:00:00 10.5 C 9.5 g/m*3 10.5 C 0 km/h
86 11-04-2021 09:05:00 10.5 C 9.5 g/m*3 10.5 C 4.8 km/h
87 11-04-2021 09:10:00 10.5 C 9.5 g/m*3 10.5 C 4.8 km/h
88 11-04-2021 09:15:00 10.7 C 9.63 g/m*3 10.18 C 6.4 km/h
89 11-04-2021 09:20:00 10.7 C 9.53 g/m*3 10.7 C 4.8 km/h
90 11-04-2021 09:25:00 10.7 C 9.53 g/m*3 10.18 C 6.4 km/h
91 11-04-2021 09:30:00 10.1 C 9.17 g/m*3 8.8 C 9.7 km/h
92 11-04-2021 09:35:00 9.3 C 8.63 g/m*3 7.85 C 9.7 km/h
93 11-04-2021 09:40:00 8.7 C 8.22 g/m*3 6.6 C 12.9 km/h
94 11-04-2021 09:45:00 8.4 C 8.14 g/m*3 8.4 C 3.2 km/h
95 11-04-2021 09:50:00 8.2 C 8.04 g/m*3 6.87 C 8.1 km/h
96 11-04-2021 09:55:00 8.1 C 7.99 g/m*3 6.13 C 11.3 km/h
97 11-04-2021 10:00:00 7.8 C 7.83 g/m*3 6.83 C 6.4 km/h
98 11-04-2021 10:05:00 7.6 C 7.73 g/m*3 7.6 C 4.8 km/h
99 11-04-2021 10:10:00 7.5 C 7.68 g/m*3 7.5 C 1.6 km/h
100 11-04-2021 10:15:00 7.4 C 7.63 g/m*3 7.4 C 3.2 km/h
Sensor: Nr:Datum:Temp:Abs-Feuchte:Windchill:Wind:
Aussen-T/F 101 11-04-2021 10:20:00 7.3 C 7.58 g/m*3 5.81 C 8.1 km/h
102 11-04-2021 10:25:00 7.1 C 7.49 g/m*3 7.1 C 4.8 km/h
103 11-04-2021 10:30:00 6.9 C 7.39 g/m*3 5.79 C 6.4 km/h
104 11-04-2021 10:35:00 6.8 C 7.34 g/m*3 3.82 C 16.1 km/h
105 11-04-2021 10:40:00 6.6 C 7.17 g/m*3 4.99 C 8.1 km/h
106 11-04-2021 10:45:00 6.4 C 7.15 g/m*3 5.21 C 6.4 km/h
107 11-04-2021 10:50:00 6.3 C 7.11 g/m*3 6.3 C 0 km/h
108 11-04-2021 10:55:00 6.3 C 7.11 g/m*3 6.3 C 1.6 km/h
109 11-04-2021 11:00:00 6.3 C 7.11 g/m*3 6.3 C 3.2 km/h
110 11-04-2021 11:05:00 6.2 C 7.06 g/m*3 6.2 C 4.8 km/h
111 11-04-2021 11:10:00 5.9 C 6.85 g/m*3 4.63 C 6.4 km/h
112 11-04-2021 11:15:00 5.8 C 6.81 g/m*3 5.8 C 4.8 km/h
113 11-04-2021 11:20:00 5.8 C 6.88 g/m*3 5.8 C 3.2 km/h
114 11-04-2021 11:25:00 5.7 C 6.83 g/m*3 3.93 C 8.1 km/h
115 11-04-2021 11:30:00 5.7 C 6.83 g/m*3 3.93 C 8.1 km/h
116 11-04-2021 11:35:00 5.7 C 6.83 g/m*3 5.7 C 4.8 km/h
117 11-04-2021 11:40:00 5.7 C 6.83 g/m*3 2.69 C 14.5 km/h
118 11-04-2021 11:45:00 5.6 C 6.72 g/m*3 2.83 C 12.9 km/h
119 11-04-2021 11:50:00 5.6 C 6.72 g/m*3 2.83 C 12.9 km/h
120 11-04-2021 11:55:00 5.6 C 6.72 g/m*3 3.81 C 8.1 km/h
121 11-04-2021 12:00:00 5.5 C 6.67 g/m*3 3.7 C 8.1 km/h
122 11-04-2021 12:05:00 5.4 C 6.63 g/m*3 3.58 C 8.1 km/h
123 11-04-2021 12:10:00 5.3 C 6.58 g/m*3 2.75 C 11.3 km/h
124 11-04-2021 12:15:00 5.3 C 6.58 g/m*3 2.75 C 11.3 km/h
125 11-04-2021 12:20:00 5.3 C 6.58 g/m*3 3.94 C 6.4 km/h
Sensor: Nr:Datum:Temp:Abs-Feuchte:Windchill:Wind:
Aussen-T/F 126 11-04-2021 12:25:00 5.3 C 6.58 g/m*3 1.96 C 16.1 km/h
127 11-04-2021 12:30:00 5.3 C 6.58 g/m*3 3.46 C 8.1 km/h
128 11-04-2021 12:35:00 5.3 C 6.58 g/m*3 3.94 C 6.4 km/h
129 11-04-2021 12:40:00 5.3 C 6.58 g/m*3 2.75 C 11.3 km/h
130 11-04-2021 12:45:00 5.3 C 6.58 g/m*3 2.46 C 12.9 km/h
131 11-04-2021 12:50:00 5.3 C 6.58 g/m*3 2.75 C 11.3 km/h
132 11-04-2021 12:55:00 5.3 C 6.52 g/m*3 2.2 C 14.5 km/h
133 11-04-2021 13:00:00 5.2 C 6.47 g/m*3 1.83 C 16.1 km/h
134 11-04-2021 13:05:00 5.2 C 6.47 g/m*3 2.63 C 11.3 km/h
135 11-04-2021 13:10:00 5.3 C 6.52 g/m*3 2.2 C 14.5 km/h
136 11-04-2021 13:15:00 5.3 C 6.52 g/m*3 2.75 C 11.3 km/h
137 11-04-2021 13:20:00 5.3 C 6.52 g/m*3 3.08 C 9.7 km/h
138 11-04-2021 13:25:00 5.3 C 6.52 g/m*3 3.08 C 9.7 km/h
139 11-04-2021 13:30:00 5.3 C 6.58 g/m*3 3.46 C 8.1 km/h
140 11-04-2021 13:35:00 5.2 C 6.47 g/m*3 2.96 C 9.7 km/h
141 11-04-2021 13:40:00 5.1 C 6.43 g/m*3 1.95 C 14.5 km/h
142 11-04-2021 13:45:00 4.9 C 6.35 g/m*3 1.7 C 14.5 km/h
143 11-04-2021 13:50:00 4.9 C 6.35 g/m*3 1.97 C 12.9 km/h
144 11-04-2021 13:55:00 4.8 C 6.3 g/m*3 2.49 C 9.7 km/h
145 11-04-2021 14:00:00 4.8 C 6.3 g/m*3 2.15 C 11.3 km/h
146 11-04-2021 14:05:00 4.8 C 6.3 g/m*3 1.85 C 12.9 km/h
147 11-04-2021 14:10:00 4.7 C 6.26 g/m*3 1.21 C 16.1 km/h
148 11-04-2021 14:15:00 4.7 C 6.26 g/m*3 2.03 C 11.3 km/h
149 11-04-2021 14:20:00 4.7 C 6.26 g/m*3 2.37 C 9.7 km/h
150 11-04-2021 14:25:00 4.6 C 6.15 g/m*3 1.34 C 14.5 km/h
Sensor: Nr:Datum:Temp:Abs-Feuchte:Windchill:Wind:
Aussen-T/F 151 11-04-2021 14:30:00 4.6 C 6.22 g/m*3 2.25 C 9.7 km/h
152 11-04-2021 14:35:00 4.5 C 6.11 g/m*3 1.79 C 11.3 km/h
153 11-04-2021 14:40:00 4.4 C 6.07 g/m*3 1.36 C 12.9 km/h
154 11-04-2021 14:45:00 4.4 C 6.07 g/m*3 1.36 C 12.9 km/h
155 11-04-2021 14:50:00 4.3 C 6.03 g/m*3 0.27 C 19.3 km/h
156 11-04-2021 14:55:00 4.4 C 6.14 g/m*3 2.9 C 6.4 km/h
157 11-04-2021 15:00:00 4.4 C 6.14 g/m*3 2.01 C 9.7 km/h
158 11-04-2021 15:05:00 4.4 C 6.07 g/m*3 2.4 C 8.1 km/h
159 11-04-2021 15:10:00 4.4 C 6.07 g/m*3 1.67 C 11.3 km/h
160 11-04-2021 15:15:00 4.5 C 6.18 g/m*3 2.52 C 8.1 km/h
161 11-04-2021 15:20:00 4.5 C 6.11 g/m*3 1.79 C 11.3 km/h
162 11-04-2021 15:25:00 4.5 C 6.11 g/m*3 1.79 C 11.3 km/h
163 11-04-2021 15:30:00 4.6 C 6.15 g/m*3 4.6 C 4.8 km/h
164 11-04-2021 15:35:00 4.6 C 6.22 g/m*3 4.6 C 4.8 km/h
165 11-04-2021 15:40:00 4.6 C 6.15 g/m*3 1.61 C 12.9 km/h
166 11-04-2021 15:45:00 4.6 C 6.22 g/m*3 4.6 C 4.8 km/h
167 11-04-2021 15:50:00 4.5 C 6.11 g/m*3 2.13 C 9.7 km/h
168 11-04-2021 15:55:00 4.5 C 6.11 g/m*3 2.13 C 9.7 km/h
169 11-04-2021 16:00:00 4.4 C 6.07 g/m*3 4.4 C 3.2 km/h
170 11-04-2021 16:05:00 4.4 C 6.07 g/m*3 2.4 C 8.1 km/h
171 11-04-2021 16:10:00 4.4 C 6.07 g/m*3 2.9 C 6.4 km/h
172 11-04-2021 16:15:00 4.4 C 6.07 g/m*3 2.01 C 9.7 km/h
173 11-04-2021 16:20:00 4.4 C 6.07 g/m*3 2.4 C 8.1 km/h
174 11-04-2021 16:25:00 4.4 C 6.07 g/m*3 2.4 C 8.1 km/h
175 11-04-2021 16:30:00 4.4 C 6.07 g/m*3 1.09 C 14.5 km/h
Sensor: Nr:Datum:Temp:Abs-Feuchte:Windchill:Wind:
Aussen-T/F 176 11-04-2021 16:35:00 4.4 C 6.07 g/m*3 2.4 C 8.1 km/h
177 11-04-2021 16:40:00 4.4 C 6.14 g/m*3 2.9 C 6.4 km/h
178 11-04-2021 16:45:00 4.5 C 6.18 g/m*3 1.79 C 11.3 km/h
179 11-04-2021 16:50:00 4.4 C 6.14 g/m*3 1.36 C 12.9 km/h
180 11-04-2021 16:55:00 4.4 C 6.14 g/m*3 1.67 C 11.3 km/h
181 11-04-2021 17:00:00 4.5 C 6.18 g/m*3 1.21 C 14.5 km/h
182 11-04-2021 17:05:00 4.5 C 6.18 g/m*3 1.79 C 11.3 km/h
183 11-04-2021 17:10:00 4.6 C 6.22 g/m*3 4.6 C 4.8 km/h
184 11-04-2021 17:15:00 4.6 C 6.22 g/m*3 2.64 C 8.1 km/h
185 11-04-2021 17:20:00 4.7 C 6.26 g/m*3 3.25 C 6.4 km/h
186 11-04-2021 17:25:00 4.7 C 6.26 g/m*3 2.76 C 8.1 km/h
187 11-04-2021 17:30:00 4.7 C 6.26 g/m*3 2.76 C 8.1 km/h
188 11-04-2021 17:35:00 4.7 C 6.26 g/m*3 4.7 C 4.8 km/h
189 11-04-2021 17:40:00 4.7 C 6.26 g/m*3 3.25 C 6.4 km/h
190 11-04-2021 17:45:00 4.8 C 6.3 g/m*3 3.36 C 6.4 km/h
191 11-04-2021 17:50:00 4.8 C 6.3 g/m*3 4.8 C 3.2 km/h
192 11-04-2021 17:55:00 4.7 C 6.19 g/m*3 2.37 C 9.7 km/h
193 11-04-2021 18:00:00 4.8 C 6.3 g/m*3 2.87 C 8.1 km/h
194 11-04-2021 18:05:00 4.9 C 6.35 g/m*3 4.9 C 3.2 km/h
195 11-04-2021 18:10:00 4.9 C 6.35 g/m*3 3.48 C 6.4 km/h
196 11-04-2021 18:15:00 4.9 C 6.35 g/m*3 2.99 C 8.1 km/h
197 11-04-2021 18:20:00 4.9 C 6.35 g/m*3 3.48 C 6.4 km/h
198 11-04-2021 18:25:00 4.9 C 6.35 g/m*3 2.61 C 9.7 km/h
199 11-04-2021 18:30:00 5 C 6.39 g/m*3 5 C 4.8 km/h
200 11-04-2021 18:35:00 5 C 6.32 g/m*3 2.72 C 9.7 km/h
Sensor: Nr:Datum:Temp:Abs-Feuchte:Windchill:Wind:
Aussen-T/F 201 11-04-2021 18:40:00 5 C 6.32 g/m*3 2.72 C 9.7 km/h
202 11-04-2021 18:45:00 5 C 6.32 g/m*3 2.39 C 11.3 km/h
203 11-04-2021 18:50:00 5 C 6.32 g/m*3 2.72 C 9.7 km/h
204 11-04-2021 18:55:00 5 C 6.32 g/m*3 2.72 C 9.7 km/h
205 11-04-2021 19:00:00 5 C 6.32 g/m*3 5 C 4.8 km/h
206 11-04-2021 19:05:00 5 C 6.32 g/m*3 3.11 C 8.1 km/h
207 11-04-2021 19:10:00 5 C 6.32 g/m*3 3.59 C 6.4 km/h
208 11-04-2021 19:15:00 4.9 C 6.28 g/m*3 2.99 C 8.1 km/h
209 11-04-2021 19:20:00 4.9 C 6.28 g/m*3 4.9 C 3.2 km/h
210 11-04-2021 19:25:00 4.9 C 6.28 g/m*3 4.9 C 4.8 km/h
211 11-04-2021 19:30:00 4.9 C 6.28 g/m*3 3.48 C 6.4 km/h
212 11-04-2021 19:35:00 4.9 C 6.28 g/m*3 4.9 C 4.8 km/h
213 11-04-2021 19:40:00 4.9 C 6.28 g/m*3 4.9 C 1.6 km/h
214 11-04-2021 19:45:00 4.9 C 6.28 g/m*3 3.48 C 6.4 km/h
215 11-04-2021 19:50:00 4.8 C 6.24 g/m*3 4.8 C 4.8 km/h
216 11-04-2021 19:55:00 4.8 C 6.24 g/m*3 3.36 C 6.4 km/h
217 11-04-2021 20:00:00 4.8 C 6.24 g/m*3 4.8 C 4.8 km/h
218 11-04-2021 20:05:00 4.8 C 6.24 g/m*3 3.36 C 6.4 km/h
219 11-04-2021 20:10:00 4.7 C 6.19 g/m*3 2.76 C 8.1 km/h
220 11-04-2021 20:15:00 4.6 C 6.15 g/m*3 2.25 C 9.7 km/h
221 11-04-2021 20:20:00 4.6 C 6.15 g/m*3 2.64 C 8.1 km/h
222 11-04-2021 20:25:00 4.5 C 6.11 g/m*3 2.52 C 8.1 km/h
223 11-04-2021 20:30:00 4.4 C 6.07 g/m*3 2.01 C 9.7 km/h
224 11-04-2021 20:35:00 4.4 C 6.07 g/m*3 4.4 C 4.8 km/h
225 11-04-2021 20:40:00 4.4 C 6.07 g/m*3 2.4 C 8.1 km/h
Sensor: Nr:Datum:Temp:Abs-Feuchte:Windchill:Wind:
Aussen-T/F 226 11-04-2021 20:45:00 4.3 C 6.03 g/m*3 2.29 C 8.1 km/h
227 11-04-2021 20:50:00 4.3 C 6.03 g/m*3 1.89 C 9.7 km/h
228 11-04-2021 20:55:00 4.3 C 6.03 g/m*3 2.29 C 8.1 km/h
229 11-04-2021 21:00:00 4.3 C 6.03 g/m*3 2.78 C 6.4 km/h
230 11-04-2021 21:05:00 4.3 C 6.03 g/m*3 4.3 C 1.6 km/h
231 11-04-2021 21:10:00 4.3 C 6.03 g/m*3 4.3 C 3.2 km/h
232 11-04-2021 21:15:00 4.2 C 5.99 g/m*3 4.2 C 4.8 km/h
233 11-04-2021 21:20:00 4.2 C 5.99 g/m*3 4.2 C 0 km/h
234 11-04-2021 21:25:00 4.2 C 6.06 g/m*3 1.77 C 9.7 km/h
235 11-04-2021 21:30:00 4.2 C 5.99 g/m*3 2.17 C 8.1 km/h
236 11-04-2021 21:35:00 4.1 C 5.95 g/m*3 4.1 C 4.8 km/h
237 11-04-2021 21:40:00 4.1 C 5.95 g/m*3 4.1 C 1.6 km/h
238 11-04-2021 21:45:00 4.1 C 5.95 g/m*3 4.1 C 4.8 km/h
239 11-04-2021 21:50:00 4.1 C 5.95 g/m*3 4.1 C 3.2 km/h
240 11-04-2021 21:55:00 4.1 C 6.02 g/m*3 4.1 C 1.6 km/h
241 11-04-2021 22:00:00 4 C 5.98 g/m*3 4 C 3.2 km/h
242 11-04-2021 22:05:00 3.9 C 5.94 g/m*3 3.9 C 0 km/h
243 11-04-2021 22:10:00 3.9 C 5.94 g/m*3 3.9 C 0 km/h
244 11-04-2021 22:15:00 3.8 C 5.9 g/m*3 3.8 C 0 km/h
245 11-04-2021 22:20:00 3.8 C 5.9 g/m*3 3.8 C 1.6 km/h
246 11-04-2021 22:25:00 3.7 C 5.86 g/m*3 3.7 C 4.8 km/h
247 11-04-2021 22:30:00 3.7 C 5.86 g/m*3 3.7 C 3.2 km/h
248 11-04-2021 22:35:00 3.7 C 5.86 g/m*3 3.7 C 4.8 km/h
249 11-04-2021 22:40:00 3.7 C 5.86 g/m*3 3.7 C 4.8 km/h
250 11-04-2021 22:45:00 3.7 C 5.86 g/m*3 3.7 C 3.2 km/h
Sensor: Nr:Datum:Temp:Abs-Feuchte:Windchill:Wind:
Aussen-T/F 251 11-04-2021 22:50:00 3.7 C 5.92 g/m*3 3.7 C 0 km/h
252 11-04-2021 22:55:00 3.7 C 5.92 g/m*3 3.7 C 3.2 km/h
253 11-04-2021 23:00:00 3.8 C 5.96 g/m*3 3.8 C 0 km/h
254 11-04-2021 23:05:00 3.8 C 5.96 g/m*3 3.8 C 1.6 km/h
255 11-04-2021 23:10:00 3.8 C 5.96 g/m*3 3.8 C 3.2 km/h
256 11-04-2021 23:15:00 3.8 C 5.96 g/m*3 3.8 C 0 km/h
257 11-04-2021 23:20:00 3.8 C 5.96 g/m*3 3.8 C 0 km/h
258 11-04-2021 23:25:00 3.8 C 5.96 g/m*3 3.8 C 1.6 km/h
259 11-04-2021 23:30:00 3.8 C 5.96 g/m*3 3.8 C 1.6 km/h
260 11-04-2021 23:35:00 3.8 C 5.96 g/m*3 3.8 C 3.2 km/h
261 11-04-2021 23:40:00 3.8 C 5.96 g/m*3 3.8 C 3.2 km/h
262 11-04-2021 23:45:00 3.9 C 6 g/m*3 3.9 C 0 km/h
263 11-04-2021 23:50:00 3.9 C 6 g/m*3 3.9 C 3.2 km/h
264 11-04-2021 23:55:00 3.9 C 6 g/m*3 3.9 C 1.6 km/h

Legende:
   Min
   Max


Maximal/Minimal-Werte vom 23.02.2003 - 12.04.2021

Sensor Min Max Avg
Temp
(Aussen-T/F)
-16.4 °C
20-12-2009  01:30:01
40.4 °C
25-07-2019  16:20:00
11.11 °C

Die Daten stammen von einer Davis Vantage Pro 2 Wetter-Station und werden unter Linux mit der Software wview2wettercgi und aufbereitet. Alle Angaben erfolgen ohne Gewähr für ihre Vollständigkeit oder Richtigkeit.
Kontakt: Rainer Krienke krienke@uni-koblenz.de . Meine Webseiten an der Uni Koblenz oder privat.
Version: $Revision: 0.78 $